Time;durP1;ratioP1;P1;durP2;ratioP2;P2;SDS_P1;SDS_P2;PMS_P1;PMS_P2;Temp;Humidity;BMP_temperature;BMP_pressure;BME280_temperature;BME280_humidity;BME280_pressure;Samples;Min_cycle;Max_cycle;Signal;HPM_P1;HPM_P2
2023/09/13 00:00:30;;;;;;;2.87;1.30;;;26.30;48.50;;;;;;2362181;58;21008;-69
2023/09/13 00:02:57;;;;;;;2.85;1.58;;;26.20;48.40;;;;;;2372829;58;21031;-68
2023/09/13 00:05:24;;;;;;;2.58;1.20;;;26.20;48.40;;;;;;2183869;58;21423;-69
2023/09/13 00:07:50;;;;;;;2.97;1.42;;;26.20;48.40;;;;;;2396545;58;21464;-70
2023/09/13 00:10:18;;;;;;;2.95;1.20;;;26.20;48.50;;;;;;2378422;58;21528;-71
2023/09/13 00:12:44;;;;;;;2.45;1.20;;;26.20;48.70;;;;;;2388677;58;20962;-70
2023/09/13 00:15:11;;;;;;;2.67;1.35;;;26.20;48.80;;;;;;2183612;59;21059;-70
2023/09/13 00:17:38;;;;;;;3.10;1.67;;;26.20;48.80;;;;;;2395993;58;21000;-69
2023/09/13 00:20:07;;;;;;;2.58;1.30;;;26.10;48.90;;;;;;2183760;59;20999;-70
2023/09/13 00:22:33;;;;;;;3.12;1.73;;;26.10;48.90;;;;;;2183336;59;20959;-69
2023/09/13 00:25:03;;;;;;;2.45;1.20;;;26.10;48.80;;;;;;2183573;59;21448;-69
2023/09/13 00:27:29;;;;;;;2.67;1.35;;;26.10;48.90;;;;;;2183132;59;20979;-69
2023/09/13 00:29:56;;;;;;;4.03;1.40;;;26.10;48.90;;;;;;2183523;59;20940;-70
2023/09/13 00:32:22;;;;;;;2.47;1.33;;;26.00;49.10;;;;;;2183349;59;21047;-69
2023/09/13 00:34:49;;;;;;;2.42;1.20;;;26.00;49.00;;;;;;2183733;59;20986;-70
2023/09/13 00:37:16;;;;;;;3.10;1.40;;;26.00;49.00;;;;;;2176794;59;21002;-69
2023/09/13 00:39:42;;;;;;;2.97;1.30;;;26.00;49.00;;;;;;2381817;58;20980;-69
2023/09/13 00:42:09;;;;;;;2.83;1.40;;;26.00;49.10;;;;;;2183564;58;21011;-69
2023/09/13 00:44:36;;;;;;;3.25;1.55;;;26.00;49.30;;;;;;2395806;58;20963;-69
2023/09/13 00:47:02;;;;;;;3.47;1.42;;;25.90;49.10;;;;;;2183161;59;21024;-69
2023/09/13 00:49:29;;;;;;;2.37;1.35;;;26.00;49.20;;;;;;2182903;59;21031;-68
2023/09/13 00:51:55;;;;;;;2.50;1.35;;;25.90;49.30;;;;;;2179908;59;21078;-71
2023/09/13 00:54:23;;;;;;;2.80;1.50;;;25.90;49.50;;;;;;2182171;59;21003;-71
2023/09/13 00:56:50;;;;;;;4.53;1.52;;;25.90;49.60;;;;;;2159599;59;21470;-69
2023/09/13 00:59:16;;;;;;;2.78;1.70;;;25.90;49.70;;;;;;2366163;58;20982;-70
2023/09/13 01:05:11;;;;;;;2.35;1.05;;;25.90;50.20;;;;;;2366335;58;21038;-71
2023/09/13 01:07:38;;;;;;;2.70;1.40;;;25.90;49.90;;;;;;2155026;59;21463;-68
2023/09/13 01:10:05;;;;;;;2.53;1.37;;;25.90;49.80;;;;;;2144618;59;21533;-70
2023/09/13 01:12:32;;;;;;;2.42;1.10;;;25.80;49.80;;;;;;2366860;58;21021;-70
2023/09/13 01:15:00;;;;;;;3.97;1.37;;;25.80;49.90;;;;;;2358554;58;20972;-70
2023/09/13 01:18:36;;;;;;;3.50;1.40;;;25.80;50.00;;;;;;2158958;59;20960;-70
2023/09/13 01:21:25;;;;;;;2.47;1.23;;;25.90;50.30;;;;;;2159562;59;21087;-69
2023/09/13 01:24:21;;;;;;;2.83;1.40;;;25.80;50.30;;;;;;2159699;59;20972;-71
2023/09/13 01:27:12;;;;;;;2.58;1.40;;;25.80;50.30;;;;;;2361726;58;21008;-68
2023/09/13 01:29:38;;;;;;;2.20;1.10;;;25.80;50.20;;;;;;2365561;58;21053;-70
2023/09/13 01:32:05;;;;;;;2.40;1.30;;;25.80;50.10;;;;;;2366628;58;20940;-70
2023/09/13 01:34:32;;;;;;;2.80;1.60;;;25.80;50.10;;;;;;2367185;58;20967;-69
2023/09/13 01:37:00;;;;;;;2.70;1.40;;;25.80;50.30;;;;;;2366211;58;20976;-68
2023/09/13 01:39:28;;;;;;;4.20;1.65;;;25.80;50.30;;;;;;2366952;58;20972;-68
2023/09/13 01:42:00;;;;;;;4.65;1.62;;;25.80;50.40;;;;;;2366960;58;20968;-68
2023/09/13 01:44:26;;;;;;;2.90;1.75;;;25.80;50.50;;;;;;2366461;58;20968;-69
2023/09/13 01:46:53;;;;;;;3.30;1.73;;;25.80;50.50;;;;;;2178776;59;21479;-69
2023/09/13 01:49:20;;;;;;;3.87;1.80;;;25.80;50.70;;;;;;2183554;59;21011;-69
2023/09/13 01:51:47;;;;;;;3.60;1.90;;;25.70;50.70;;;;;;2183559;59;21014;-69
2023/09/13 01:54:17;;;;;;;3.20;1.77;;;25.70;50.80;;;;;;2395489;58;20987;-70
2023/09/13 01:56:49;;;;;;;3.08;1.90;;;25.70;51.00;;;;;;2183874;59;20939;-69
2023/09/13 01:59:18;;;;;;;3.40;2.00;;;25.70;51.00;;;;;;2395541;58;21010;-70
2023/09/13 02:01:46;;;;;;;3.50;1.90;;;25.70;51.10;;;;;;2182822;59;21440;-69
2023/09/13 02:04:12;;;;;;;3.28;1.85;;;25.70;51.30;;;;;;2183009;58;21841;-69
2023/09/13 02:06:39;;;;;;;3.25;2.10;;;25.70;51.30;;;;;;2395775;58;21019;-69
2023/09/13 02:09:08;;;;;;;4.35;1.92;;;25.70;51.50;;;;;;2396200;58;22003;-70
2023/09/13 02:11:35;;;;;;;3.03;1.70;;;25.70;51.60;;;;;;2395411;58;20959;-68
2023/09/13 02:14:01;;;;;;;3.20;1.65;;;25.70;51.50;;;;;;2183323;59;20955;-70
2023/09/13 02:16:30;;;;;;;2.80;1.75;;;25.70;51.40;;;;;;2182742;59;20938;-70
2023/09/13 02:18:57;;;;;;;3.35;1.55;;;25.70;51.40;;;;;;2396395;58;21015;-69
2023/09/13 02:21:23;;;;;;;2.83;1.73;;;25.60;51.30;;;;;;2183425;59;21971;-68
2023/09/13 02:23:50;;;;;;;2.83;1.62;;;25.60;51.30;;;;;;2396439;58;20976;-69
2023/09/13 02:26:23;;;;;;;2.97;1.58;;;25.60;51.40;;;;;;2183564;58;21429;-70
2023/09/13 02:28:49;;;;;;;2.40;1.30;;;25.60;51.60;;;;;;2183549;59;21008;-69
2023/09/13 02:31:25;;;;;;;3.05;1.58;;;25.60;51.40;;;;;;2184004;58;21475;-68
2023/09/13 02:33:52;;;;;;;3.12;1.67;;;25.50;51.70;;;;;;2183485;59;21001;-69
2023/09/13 02:36:20;;;;;;;3.10;1.67;;;25.70;51.60;;;;;;2394481;58;20966;-69
2023/09/13 02:38:50;;;;;;;5.37;2.15;;;25.60;52.00;;;;;;2181840;58;21117;-70
2023/09/13 02:41:16;;;;;;;4.47;2.65;;;25.60;52.20;;;;;;2395145;58;20981;-68
2023/09/13 02:43:42;;;;;;;3.67;2.03;;;25.60;52.40;;;;;;2182401;59;21019;-69
2023/09/13 02:46:08;;;;;;;3.75;2.33;;;25.60;52.70;;;;;;2183058;59;20979;-71
2023/09/13 02:48:36;;;;;;;4.05;2.30;;;25.60;52.70;;;;;;2183501;58;20999;-70
2023/09/13 02:51:11;;;;;;;3.60;2.37;;;25.60;53.00;;;;;;2183524;59;20963;-68
2023/09/13 02:53:37;;;;;;;5.65;2.30;;;25.60;53.50;;;;;;2183285;58;21082;-70
2023/09/13 02:56:05;;;;;;;4.53;2.05;;;25.50;53.10;;;;;;2183676;59;21040;-71
2023/09/13 02:58:32;;;;;;;3.53;2.10;;;25.50;53.10;;;;;;2377480;58;20977;-70
2023/09/13 03:01:03;;;;;;;3.42;1.87;;;25.50;53.20;;;;;;2389271;58;20975;-68
2023/09/13 03:03:30;;;;;;;3.85;1.90;;;25.40;53.10;;;;;;2395348;58;20955;-69
2023/09/13 03:06:05;;;;;;;3.58;1.60;;;25.40;53.30;;;;;;2395821;58;21316;-69
2023/09/13 03:08:33;;;;;;;3.58;1.60;;;25.40;53.70;;;;;;2182664;58;21047;-70
2023/09/13 03:11:11;;;;;;;3.03;1.55;;;25.40;53.40;;;;;;2183213;59;21492;-69
2023/09/13 03:13:39;;;;;;;3.03;1.45;;;25.40;53.60;;;;;;2396015;58;21094;-69
2023/09/13 03:16:19;;;;;;;3.35;1.60;;;25.40;53.40;;;;;;2183274;58;21709;-69
2023/09/13 03:18:48;;;;;;;4.37;1.62;;;25.40;53.80;;;;;;2396036;58;21035;-69
2023/09/13 03:21:17;;;;;;;2.42;1.20;;;25.40;53.50;;;;;;2183469;58;21451;-71
2023/09/13 03:23:45;;;;;;;5.68;1.50;;;25.30;53.40;;;;;;2183594;59;21505;-70
2023/09/13 03:26:22;;;;;;;3.22;1.60;;;25.30;53.50;;;;;;2395916;58;20959;-69
2023/09/13 03:28:52;;;;;;;2.45;1.45;;;25.30;53.80;;;;;;2395188;58;20979;-68
2023/09/13 03:31:21;;;;;;;3.00;1.70;;;25.30;53.70;;;;;;2395716;58;21475;-71
2023/09/13 03:33:49;;;;;;;3.03;1.55;;;25.30;53.90;;;;;;2395475;58;21004;-68
2023/09/13 03:36:18;;;;;;;3.90;1.60;;;25.20;54.00;;;;;;2183430;58;21047;-67
2023/09/13 03:38:45;;;;;;;3.55;1.70;;;25.20;54.10;;;;;;2395923;58;21071;-68
2023/09/13 03:41:12;;;;;;;3.22;1.80;;;25.20;54.10;;;;;;2183676;59;21043;-70
2023/09/13 03:43:41;;;;;;;3.40;1.92;;;25.20;54.10;;;;;;2395725;58;20957;-69
2023/09/13 03:46:08;;;;;;;3.17;1.87;;;25.20;54.10;;;;;;2388009;58;21252;-70
2023/09/13 03:48:35;;;;;;;2.70;1.52;;;25.10;54.10;;;;;;2377831;58;20967;-68
2023/09/13 03:51:01;;;;;;;2.85;1.70;;;25.10;54.10;;;;;;2395030;58;20959;-69
2023/09/13 03:53:27;;;;;;;3.00;1.60;;;25.10;54.10;;;;;;2394687;58;20971;-69
2023/09/13 03:55:54;;;;;;;4.00;1.92;;;25.10;54.10;;;;;;2395365;58;21432;-73
2023/09/13 03:58:23;;;;;;;3.35;1.75;;;25.00;54.30;;;;;;2182397;59;20981;-71
2023/09/13 04:00:49;;;;;;;5.45;1.98;;;25.00;54.50;;;;;;2395006;58;21043;-69
2023/09/13 04:03:16;;;;;;;3.65;1.90;;;25.00;54.60;;;;;;2395189;58;21741;-69
2023/09/13 04:05:42;;;;;;;3.05;1.70;;;25.00;54.60;;;;;;2183128;58;20984;-71
2023/09/13 04:08:09;;;;;;;3.47;1.87;;;25.00;54.50;;;;;;2387825;58;21315;-70
2023/09/13 04:10:40;;;;;;;;;;;24.90;54.50;;;;;;2173045;59;20951;-70
2023/09/13 04:13:07;;;;;;;2.47;1.30;;;24.90;54.80;;;;;;2395350;58;20393;-70
2023/09/13 04:15:33;;;;;;;2.60;1.33;;;24.90;54.40;;;;;;2183154;59;21004;-70
2023/09/13 04:18:00;;;;;;;2.65;1.37;;;24.90;54.50;;;;;;2183487;59;21003;-70
2023/09/13 04:20:26;;;;;;;3.15;1.40;;;24.80;54.50;;;;;;2183125;59;21675;-69
2023/09/13 04:22:52;;;;;;;3.08;1.60;;;24.80;54.60;;;;;;2395303;58;21928;-71
2023/09/13 04:25:22;;;;;;;3.08;1.80;;;24.80;54.60;;;;;;2173544;59;21002;-71
2023/09/13 04:27:48;;;;;;;3.30;1.75;;;24.80;55.50;;;;;;2386921;58;20956;-68
2023/09/13 04:30:16;;;;;;;3.47;1.87;;;24.80;54.80;;;;;;2183528;59;20971;-69
2023/09/13 04:32:42;;;;;;;3.28;1.83;;;24.80;55.00;;;;;;2395216;58;21071;-67
2023/09/13 04:35:12;;;;;;;3.40;1.70;;;24.80;55.10;;;;;;2183229;58;20967;-69
2023/09/13 04:37:39;;;;;;;4.40;2.20;;;24.80;55.30;;;;;;2395142;58;20995;-69
2023/09/13 04:40:07;;;;;;;2.97;1.73;;;24.70;55.20;;;;;;2184250;58;20963;-68
2023/09/13 04:42:46;;;;;;;3.60;2.17;;;24.70;55.20;;;;;;2183542;58;20936;-69
2023/09/13 04:45:12;;;;;;;4.50;1.83;;;24.70;55.40;;;;;;2394349;58;21020;-70
2023/09/13 04:47:40;;;;;;;4.07;2.15;;;24.70;55.40;;;;;;2183595;58;21071;-71
2023/09/13 04:50:16;;;;;;;3.25;2.03;;;24.70;55.50;;;;;;2182416;59;21469;-70
2023/09/13 04:52:42;;;;;;;3.20;1.90;;;24.70;56.10;;;;;;2395325;58;20971;-69
2023/09/13 04:55:09;;;;;;;3.87;2.00;;;24.60;55.70;;;;;;2395322;58;20996;-68
2023/09/13 04:57:36;;;;;;;3.72;2.22;;;24.60;55.70;;;;;;2182741;59;21031;-67
2023/09/13 05:00:05;;;;;;;3.47;2.22;;;24.60;55.90;;;;;;2183335;58;20988;-68
2023/09/13 05:02:31;;;;;;;3.65;2.20;;;24.60;56.00;;;;;;2395271;58;20951;-68
2023/09/13 05:05:01;;;;;;;3.40;2.00;;;24.50;56.00;;;;;;2395926;58;20997;-68
2023/09/13 05:07:27;;;;;;;4.07;2.03;;;24.50;55.90;;;;;;2395262;58;21043;-69
2023/09/13 05:09:53;;;;;;;5.60;2.87;;;24.50;55.90;;;;;;2183028;59;21004;-69
2023/09/13 05:12:20;;;;;;;4.87;2.75;;;24.50;56.00;;;;;;2183347;58;21027;-68
2023/09/13 05:14:47;;;;;;;3.90;2.65;;;24.50;56.00;;;;;;2395411;58;21907;-67
2023/09/13 05:17:14;;;;;;;4.25;2.30;;;24.50;56.00;;;;;;2395771;58;20980;-70
2023/09/13 05:19:40;;;;;;;4.35;2.45;;;24.50;55.90;;;;;;2183271;59;21063;-69
2023/09/13 05:22:09;;;;;;;3.20;1.98;;;24.40;56.00;;;;;;2183769;59;21003;-70
2023/09/13 05:24:36;;;;;;;3.33;1.75;;;24.50;56.20;;;;;;2183979;58;20936;-71
2023/09/13 05:27:02;;;;;;;3.15;1.83;;;24.40;56.00;;;;;;2396176;58;21043;-68
2023/09/13 05:29:29;;;;;;;3.55;1.80;;;24.40;56.00;;;;;;2159297;58;21034;-68
2023/09/13 05:31:55;;;;;;;3.40;2.17;;;24.40;56.00;;;;;;2366221;58;20958;-68
2023/09/13 05:34:23;;;;;;;3.42;1.85;;;24.40;56.10;;;;;;2366628;58;21012;-69
2023/09/13 05:36:50;;;;;;;3.33;1.92;;;24.40;56.10;;;;;;2366018;58;21048;-67
2023/09/13 05:39:16;;;;;;;3.20;1.67;;;24.40;56.00;;;;;;2366383;58;21066;-70
2023/09/13 05:41:43;;;;;;;3.92;2.10;;;24.40;56.00;;;;;;2159266;59;21464;-67
2023/09/13 05:44:09;;;;;;;3.35;1.73;;;24.40;56.10;;;;;;2159999;59;21344;-67
2023/09/13 05:46:35;;;;;;;2.83;1.73;;;24.40;56.30;;;;;;2353471;58;21003;-68
2023/09/13 05:49:05;;;;;;;3.72;2.10;;;24.40;56.50;;;;;;2137248;59;20957;-68
2023/09/13 05:51:32;;;;;;;3.25;2.03;;;24.40;56.60;;;;;;2349788;58;21060;-66
2023/09/13 05:53:59;;;;;;;5.07;2.15;;;24.40;56.50;;;;;;2352654;58;21586;-69
2023/09/13 05:56:25;;;;;;;3.33;1.83;;;24.40;56.50;;;;;;2366802;58;21020;-68
2023/09/13 05:58:53;;;;;;;6.57;2.22;;;24.40;56.50;;;;;;2159018;59;21052;-68
2023/09/13 06:01:19;;;;;;;3.92;2.25;;;24.40;56.50;;;;;;2159921;59;21516;-70
2023/09/13 06:03:45;;;;;;;3.15;1.90;;;24.40;56.60;;;;;;2159619;59;21669;-72
2023/09/13 06:06:12;;;;;;;3.20;2.05;;;24.40;56.70;;;;;;2367009;58;20976;-68
2023/09/13 06:08:39;;;;;;;3.65;2.20;;;24.40;56.80;;;;;;2159695;59;21041;-69
2023/09/13 06:11:06;;;;;;;2.80;1.67;;;24.50;57.00;;;;;;2366462;58;21095;-69
2023/09/13 06:13:32;;;;;;;2.97;1.80;;;24.50;56.90;;;;;;2159959;59;21032;-67
2023/09/13 06:15:58;;;;;;;2.90;1.65;;;24.50;56.90;;;;;;2367132;58;21430;-68
2023/09/13 06:18:25;;;;;;;3.30;1.90;;;24.50;56.90;;;;;;2367466;58;21044;-68
2023/09/13 06:20:54;;;;;;;3.40;1.85;;;24.50;56.90;;;;;;2160159;59;21053;-68
2023/09/13 06:23:37;;;;;;;5.70;1.50;;;24.50;57.10;;;;;;2154958;59;20988;-68
2023/09/13 06:26:03;;;;;;;3.42;2.03;;;24.50;57.50;;;;;;2372172;58;21580;-70
2023/09/13 06:28:30;;;;;;;3.17;1.80;;;24.50;57.10;;;;;;2177902;59;21000;-68
2023/09/13 06:30:57;;;;;;;3.67;2.12;;;24.50;57.20;;;;;;2182869;58;20958;-69
2023/09/13 06:33:27;;;;;;;3.55;2.05;;;24.50;57.20;;;;;;2183782;58;20995;-67
2023/09/13 06:36:04;;;;;;;3.35;2.05;;;24.50;57.20;;;;;;2165948;59;21627;-69
2023/09/13 06:38:31;;;;;;;4.30;2.12;;;24.50;57.20;;;;;;2395962;58;21031;-70
2023/09/13 06:40:58;;;;;;;4.70;2.40;;;24.50;57.20;;;;;;2183228;59;20948;-68
2023/09/13 06:43:25;;;;;;;4.20;2.78;;;24.50;57.30;;;;;;2396020;58;21086;-68
2023/09/13 06:45:56;;;;;;;4.53;2.75;;;24.60;57.40;;;;;;2395352;58;20944;-68
2023/09/13 06:48:29;;;;;;;3.65;2.25;;;24.60;57.50;;;;;;2396216;58;20996;-70
2023/09/13 06:50:56;;;;;;;4.25;2.45;;;24.60;57.50;;;;;;2183083;58;21009;-70
2023/09/13 06:53:25;;;;;;;4.62;2.58;;;24.60;57.60;;;;;;2183470;59;21074;-67
2023/09/13 06:55:58;;;;;;;3.92;2.58;;;24.60;57.70;;;;;;2395342;58;20959;-69
2023/09/13 06:58:27;;;;;;;3.72;2.17;;;24.60;57.60;;;;;;2371326;58;21108;-70
2023/09/13 07:00:54;;;;;;;3.10;1.65;;;24.70;57.60;;;;;;2182763;59;20983;-69
2023/09/13 07:03:32;;;;;;;3.30;1.87;;;24.70;57.60;;;;;;2183468;59;20995;-67
2023/09/13 07:06:00;;;;;;;3.08;1.58;;;24.70;57.50;;;;;;2395770;58;21010;-69
2023/09/13 07:08:27;;;;;;;2.90;1.60;;;24.80;57.60;;;;;;2183336;59;20971;-69
2023/09/13 07:10:54;;;;;;;3.22;1.80;;;24.80;57.60;;;;;;2395407;58;21103;-68
2023/09/13 07:13:26;;;;;;;3.55;1.95;;;24.80;57.60;;;;;;2183276;58;21022;-70
2023/09/13 07:15:52;;;;;;;4.18;2.05;;;24.80;57.60;;;;;;2182756;58;20960;-68
2023/09/13 07:18:18;;;;;;;3.15;1.70;;;24.70;57.50;;;;;;2395492;58;20959;-68
2023/09/13 07:20:45;;;;;;;3.30;1.92;;;24.80;57.80;;;;;;2396908;58;20963;-68
2023/09/13 07:23:12;;;;;;;3.03;1.95;;;24.90;58.00;;;;;;2184002;59;20966;-69
2023/09/13 07:25:41;;;;;;;3.33;2.22;;;24.90;58.00;;;;;;2396847;58;20932;-67
2023/09/13 07:28:07;;;;;;;3.40;1.92;;;24.90;58.30;;;;;;2396245;58;21745;-67
2023/09/13 07:30:34;;;;;;;3.72;1.80;;;25.00;58.10;;;;;;2184077;59;21003;-69
2023/09/13 07:33:00;;;;;;;3.22;1.95;;;25.00;58.10;;;;;;2395922;58;20971;-69
2023/09/13 07:35:26;;;;;;;3.17;1.90;;;25.00;58.00;;;;;;2183710;59;20987;-68
2023/09/13 07:37:53;;;;;;;3.37;1.90;;;25.00;58.00;;;;;;2183411;59;20995;-68
2023/09/13 07:40:21;;;;;;;4.87;2.50;;;25.00;57.90;;;;;;2381737;58;21006;-69
2023/09/13 07:42:47;;;;;;;4.57;2.42;;;25.10;58.10;;;;;;2386020;58;21452;-71
2023/09/13 07:45:13;;;;;;;4.07;2.60;;;25.00;58.10;;;;;;2395634;58;21362;-69
2023/09/13 07:47:40;;;;;;;4.12;2.28;;;25.10;58.10;;;;;;2183880;59;20963;-69
2023/09/13 07:50:27;;;;;;;3.87;2.30;;;25.10;58.20;;;;;;2183775;59;21809;-69
2023/09/13 07:52:54;;;;;;;3.92;2.53;;;25.20;58.40;;;;;;2166632;58;21033;-68
2023/09/13 07:55:26;;;;;;;4.53;2.37;;;25.10;58.20;;;;;;2395799;58;20939;-69
2023/09/13 07:57:54;;;;;;;4.15;2.33;;;25.10;58.10;;;;;;2182841;58;20944;-68
2023/09/13 08:00:20;;;;;;;4.93;2.92;;;25.10;58.20;;;;;;2395812;58;21004;-70
2023/09/13 08:02:47;;;;;;;4.25;2.60;;;25.10;58.20;;;;;;2395437;58;20958;-66
2023/09/13 08:05:13;;;;;;;4.37;2.45;;;25.10;58.30;;;;;;2183472;59;21349;-69
2023/09/13 08:07:40;;;;;;;3.83;2.70;;;25.10;58.30;;;;;;2183845;58;20943;-69
2023/09/13 08:10:08;;;;;;;4.47;2.45;;;25.10;58.30;;;;;;2183095;58;21043;-69
2023/09/13 08:12:34;;;;;;;4.30;2.35;;;25.10;58.30;;;;;;2159724;59;20993;-69
2023/09/13 08:15:00;;;;;;;4.20;2.67;;;25.10;58.30;;;;;;2366050;58;21521;-71
2023/09/13 08:17:27;;;;;;;4.53;2.62;;;25.10;58.40;;;;;;2159125;59;20985;-69
2023/09/13 08:19:53;;;;;;;5.45;2.87;;;25.10;58.50;;;;;;2365241;58;20981;-70
2023/09/13 08:22:20;;;;;;;4.10;2.50;;;25.10;58.60;;;;;;2365622;58;21097;-67
2023/09/13 08:24:52;;;;;;;4.68;2.72;;;25.10;58.60;;;;;;2159654;59;21001;-69
2023/09/13 08:27:18;;;;;;;4.00;2.42;;;25.10;58.70;;;;;;2366251;58;21126;-69
2023/09/13 08:29:46;;;;;;;3.75;2.20;;;25.10;59.30;;;;;;2366878;58;21002;-67
2023/09/13 08:32:12;;;;;;;3.92;1.95;;;25.10;58.70;;;;;;2158708;59;21886;-69
2023/09/13 08:34:42;;;;;;;3.58;2.10;;;25.10;58.70;;;;;;2354298;58;20966;-68
2023/09/13 08:37:12;;;;;;;3.87;2.20;;;25.20;58.80;;;;;;2155036;59;20979;-66
2023/09/13 08:39:38;;;;;;;4.43;2.42;;;25.20;58.70;;;;;;2160185;59;21036;-71
2023/09/13 08:42:05;;;;;;;3.55;2.15;;;25.20;58.60;;;;;;2366911;58;20960;-68
2023/09/13 08:44:31;;;;;;;3.40;2.20;;;25.30;58.60;;;;;;2367255;58;20952;-68
2023/09/13 08:46:58;;;;;;;3.00;1.90;;;25.20;58.50;;;;;;2366907;58;21023;-68
2023/09/13 08:49:24;;;;;;;3.05;1.90;;;25.30;58.50;;;;;;2367497;58;21048;-68
2023/09/13 08:51:52;;;;;;;3.17;1.85;;;25.30;58.40;;;;;;2367036;58;21038;-70
2023/09/13 08:54:22;;;;;;;3.60;2.00;;;25.30;58.30;;;;;;2159598;59;20984;-68
2023/09/13 08:56:48;;;;;;;3.30;1.90;;;25.30;58.10;;;;;;2159737;59;21024;-70
2023/09/13 08:59:15;;;;;;;3.00;1.70;;;25.30;57.80;;;;;;2366741;58;21526;-69
2023/09/13 09:01:46;;;;;;;3.78;1.83;;;25.20;57.50;;;;;;2159581;59;21548;-70
2023/09/13 09:04:14;;;;;;;4.10;1.77;;;25.20;57.50;;;;;;2159248;59;21624;-69
2023/09/13 09:06:40;;;;;;;3.10;1.90;;;25.10;57.30;;;;;;2367594;58;21053;-68
2023/09/13 09:09:07;;;;;;;3.05;1.70;;;25.00;57.30;;;;;;2366426;58;21039;-68
2023/09/13 09:11:34;;;;;;;2.80;1.50;;;25.00;57.50;;;;;;2159668;59;21076;-69
2023/09/13 09:14:01;;;;;;;3.42;1.70;;;24.90;57.70;;;;;;2157929;59;20948;-69
2023/09/13 09:16:30;;;;;;;2.70;1.50;;;24.90;57.90;;;;;;2366768;58;21092;-68
2023/09/13 09:19:00;;;;;;;2.92;1.48;;;24.80;58.10;;;;;;2366352;58;21835;-68
2023/09/13 09:21:30;;;;;;;3.75;1.42;;;24.80;58.30;;;;;;2366898;58;21097;-68
2023/09/13 09:23:58;;;;;;;2.70;1.50;;;24.80;58.40;;;;;;2366787;58;21420;-67
2023/09/13 09:26:25;;;;;;;2.33;1.20;;;24.70;58.30;;;;;;2159636;59;21095;-69
2023/09/13 09:28:51;;;;;;;3.20;1.35;;;24.70;58.30;;;;;;2367093;58;21402;-67
2023/09/13 09:31:25;;;;;;;3.35;1.40;;;24.80;58.60;;;;;;2367231;58;21850;-67
2023/09/13 09:34:00;;;;;;;;;;;24.80;58.70;;;;;;2162698;59;21068;-67
2023/09/13 09:36:33;;;;;;;3.58;1.67;;;24.80;58.70;;;;;;2159234;59;20080;-68
2023/09/13 09:39:04;;;;;;;2.58;1.40;;;24.80;58.50;;;;;;2366612;58;21934;-67
2023/09/13 09:41:38;;;;;;;2.33;1.40;;;24.80;58.60;;;;;;2367185;58;20988;-68
2023/09/13 09:44:05;;;;;;;2.95;1.58;;;24.80;58.70;;;;;;2366851;58;21882;-69
2023/09/13 09:46:36;;;;;;;3.10;1.90;;;24.90;58.60;;;;;;2160090;59;21132;-69
2023/09/13 09:49:06;;;;;;;3.15;1.80;;;24.90;58.90;;;;;;2159575;59;20940;-70
2023/09/13 09:51:32;;;;;;;3.10;1.85;;;24.90;58.80;;;;;;2366958;58;21447;-67
2023/09/13 09:53:58;;;;;;;3.55;1.95;;;24.90;58.70;;;;;;2366524;58;21020;-69
2023/09/13 09:56:25;;;;;;;3.10;1.50;;;25.00;58.80;;;;;;2159348;59;21061;-68
2023/09/13 09:58:51;;;;;;;3.33;2.00;;;25.00;58.80;;;;;;2159700;59;21019;-70
2023/09/13 10:01:20;;;;;;;3.50;2.00;;;25.00;58.80;;;;;;2365880;58;20964;-70
2023/09/13 10:03:46;;;;;;;4.47;2.08;;;25.00;58.70;;;;;;2159662;59;20995;-68
2023/09/13 10:06:15;;;;;;;3.10;1.80;;;25.10;58.60;;;;;;2159199;59;20968;-70
2023/09/13 10:08:45;;;;;;;3.30;1.98;;;25.10;58.50;;;;;;2367202;58;21009;-68
2023/09/13 10:11:18;;;;;;;5.20;2.40;;;25.20;58.50;;;;;;2162020;59;20971;-70
2023/09/13 10:13:45;;;;;;;3.42;1.80;;;25.20;58.40;;;;;;2154237;59;21009;-71
2023/09/13 10:16:12;;;;;;;3.60;2.00;;;25.20;58.20;;;;;;2365024;58;21109;-70
2023/09/13 10:18:48;;;;;;;3.90;2.00;;;25.20;58.20;;;;;;2161382;59;21045;-69
2023/09/13 10:21:17;;;;;;;4.22;2.00;;;25.20;58.10;;;;;;2360289;58;21648;-68
2023/09/13 10:23:50;;;;;;;3.17;2.00;;;25.30;58.00;;;;;;2367664;58;20972;-70
2023/09/13 10:26:17;;;;;;;3.20;1.90;;;25.30;58.00;;;;;;2159217;59;20972;-67
2023/09/13 10:28:48;;;;;;;3.85;1.95;;;25.30;57.90;;;;;;2367273;58;21024;-69
2023/09/13 10:31:32;;;;;;;5.20;2.10;;;25.30;58.00;;;;;;2366788;58;20992;-69
2023/09/13 10:34:03;;;;;;;3.50;2.10;;;25.40;58.00;;;;;;2366708;58;20976;-69
2023/09/13 10:36:35;;;;;;;3.67;2.15;;;25.40;58.00;;;;;;2159081;59;20976;-68
2023/09/13 10:39:25;;;;;;;2.80;1.60;;;25.50;58.20;;;;;;2366492;58;21065;-68
2023/09/13 10:42:06;;;;;;;3.35;2.08;;;25.50;58.20;;;;;;2361857;58;21563;-69
2023/09/13 10:44:36;;;;;;;3.83;1.80;;;25.50;58.30;;;;;;2159388;60;21120;-69
2023/09/13 10:47:04;;;;;;;3.37;1.95;;;25.50;58.10;;;;;;2161179;59;20981;-69
2023/09/13 10:49:30;;;;;;;3.65;1.77;;;25.50;58.00;;;;;;2154206;59;20979;-68
2023/09/13 10:51:57;;;;;;;3.35;1.87;;;25.60;58.20;;;;;;2159353;59;21000;-68
2023/09/13 10:54:24;;;;;;;3.65;1.83;;;25.60;58.20;;;;;;2160582;59;21079;-70
2023/09/13 10:56:50;;;;;;;3.70;2.00;;;25.60;58.10;;;;;;2366711;58;20980;-69
2023/09/13 10:59:20;;;;;;;3.85;2.00;;;25.70;58.20;;;;;;2159108;59;21016;-69
2023/09/13 11:01:46;;;;;;;3.30;1.92;;;25.70;58.30;;;;;;2367297;58;21952;-71
2023/09/13 11:04:14;;;;;;;3.20;1.80;;;25.80;58.30;;;;;;2366489;58;20972;-69
2023/09/13 11:06:40;;;;;;;3.50;1.87;;;25.80;58.10;;;;;;2365459;58;21006;-69
2023/09/13 11:09:17;;;;;;;3.12;1.98;;;25.90;58.10;;;;;;2359346;58;21434;-71
2023/09/13 11:11:47;;;;;;;3.10;1.77;;;25.90;58.10;;;;;;2160705;59;21112;-68
2023/09/13 11:14:19;;;;;;;4.43;2.25;;;26.00;57.90;;;;;;2153890;59;21000;-69
2023/09/13 11:16:48;;;;;;;3.10;1.77;;;26.00;57.80;;;;;;2366699;58;21438;-71
2023/09/13 11:19:17;;;;;;;3.10;1.70;;;26.00;57.70;;;;;;2366010;58;20992;-67
2023/09/13 11:21:50;;;;;;;3.08;1.48;;;26.10;57.60;;;;;;2366185;58;21060;-71
2023/09/13 11:24:43;;;;;;;4.47;1.73;;;26.10;57.60;;;;;;2158587;59;21559;-69
2023/09/13 11:27:23;;;;;;;2.33;1.15;;;26.20;57.60;;;;;;2160992;59;21048;-69
2023/09/13 11:29:52;;;;;;;2.50;1.23;;;26.20;57.30;;;;;;2358919;58;20984;-69
2023/09/13 11:32:20;;;;;;;3.05;1.60;;;26.30;57.20;;;;;;2158404;59;21594;-69
2023/09/13 11:34:53;;;;;;;3.40;1.40;;;26.30;57.20;;;;;;2362938;58;20984;-69
2023/09/13 11:37:19;;;;;;;3.58;1.80;;;26.30;57.30;;;;;;2364763;58;21059;-71
2023/09/13 11:40:10;;;;;;;3.40;1.65;;;26.40;57.20;;;;;;2158190;59;21008;-70
2023/09/13 11:42:38;;;;;;;3.70;1.65;;;26.40;57.30;;;;;;2159630;59;20988;-70
2023/09/13 11:45:11;;;;;;;2.92;1.77;;;26.50;57.20;;;;;;2365549;58;21032;-70
2023/09/13 11:47:50;;;;;;;2.75;1.60;;;26.50;57.20;;;;;;2366283;58;20988;-69
2023/09/13 11:50:19;;;;;;;2.75;1.42;;;26.60;57.20;;;;;;2155784;59;20965;-71
2023/09/13 11:53:21;;;;;;;3.20;1.50;;;26.70;57.30;;;;;;2363109;58;21061;-69
2023/09/13 11:55:55;;;;;;;;;;;26.70;57.10;;;;;;2159745;59;21572;-67
2023/09/13 11:58:37;;;;;;;2.47;1.25;;;26.80;57.10;;;;;;2155482;59;20088;-68
2023/09/13 12:01:09;;;;;;;2.83;1.37;;;26.90;56.80;;;;;;2158822;59;21005;-69
2023/09/13 12:03:39;;;;;;;2.30;1.23;;;26.90;56.80;;;;;;2365914;58;21426;-68
2023/09/13 12:06:21;;;;;;;2.62;1.35;;;27.00;56.60;;;;;;2157674;59;21854;-69
2023/09/13 12:08:57;;;;;;;2.97;1.60;;;27.00;56.40;;;;;;2159148;59;21048;-71
2023/09/13 12:11:25;;;;;;;2.85;1.50;;;27.10;56.30;;;;;;2158772;59;20964;-70
2023/09/13 12:13:53;;;;;;;2.60;1.37;;;27.10;56.30;;;;;;2366330;58;21457;-69
2023/09/13 12:16:40;;;;;;;2.95;1.60;;;27.10;56.40;;;;;;2366530;58;20968;-68
2023/09/13 12:19:06;;;;;;;3.55;1.60;;;27.20;56.30;;;;;;2158674;59;21481;-70
2023/09/13 12:21:34;;;;;;;3.10;1.87;;;27.20;56.10;;;;;;2160758;59;21062;-69
2023/09/13 12:24:01;;;;;;;3.40;1.90;;;27.20;56.00;;;;;;2152255;59;20972;-69
2023/09/13 12:26:29;;;;;;;2.85;1.40;;;27.20;56.00;;;;;;2159115;59;21028;-69
2023/09/13 12:28:58;;;;;;;2.92;1.58;;;27.20;56.00;;;;;;2366818;58;20976;-69
2023/09/13 12:31:24;;;;;;;2.65;1.40;;;27.30;56.00;;;;;;2335663;58;1853232;-68
2023/09/13 12:33:53;;;;;;;2.40;1.40;;;27.30;55.80;;;;;;2365962;58;20972;-69
2023/09/13 12:36:21;;;;;;;3.05;1.70;;;27.30;55.70;;;;;;2158686;59;20996;-68
2023/09/13 12:38:48;;;;;;;2.37;1.33;;;27.30;55.60;;;;;;2390088;58;20936;-66
2023/09/13 12:41:19;;;;;;;2.75;1.55;;;27.30;55.50;;;;;;2395234;58;20976;-72
2023/09/13 12:43:49;;;;;;;3.40;1.90;;;27.40;55.40;;;;;;2184502;58;21031;-69
2023/09/13 12:46:22;;;;;;;2.70;1.60;;;27.40;55.30;;;;;;2182578;59;21004;-69
2023/09/13 12:48:51;;;;;;;3.53;1.83;;;27.40;55.20;;;;;;2166843;58;20984;-67
2023/09/13 12:51:32;;;;;;;3.28;1.60;;;27.40;55.20;;;;;;2182823;59;21088;-71
2023/09/13 12:54:01;;;;;;;3.10;1.80;;;27.40;55.10;;;;;;2395578;58;20951;-69
2023/09/13 12:56:31;;;;;;;2.80;1.58;;;27.40;55.00;;;;;;2182424;59;20980;-69
2023/09/13 12:59:00;;;;;;;3.55;1.55;;;27.30;54.80;;;;;;2183038;59;21008;-71
2023/09/13 13:01:30;;;;;;;4.47;1.70;;;27.30;54.70;;;;;;2394855;58;21080;-71